AV - LB | Pilotos de la V.A




 METAR AND TAF INFORMATION
METAR FOR SAVC
ADDS - METARS form results

(0247 UTC 19 May 2021)
Data provider http://aviationweather.gov/metar/data/
 
METAR text: SAVC 190200Z 32003KT CAVOK 11/06 Q1010
Conditions at: SAVC (COMODORO RIVADAV, AR) observed 0200 UTC 19 May 2021
Temperature: 11.0°C (52°F)
Dewpoint: 6.0°C (43°F) [RH = 71%]
Pressure (altimeter): 29.82 inches Hg (1010.0 mb)
Winds: from the NW (320 degrees) at 3 MPH (3 knots; 1.5 m/s)
Visibility: 6 or more miles (10+ km)
Ceiling: ceiling and visibility are OK
Clouds: unknown
Weather: no significant weather observed at this time

Forecast for: SAVC (COMODORO RIVADAV, AR)
Text: TAF SAVC 182300Z 1900/1924 VRB05KT 9999 SCT030 BKN060 TX17/1920Z TN08/1910Z TAF SAWG 182300Z 1900/1924 VRB05KT 9999 BKN012 BKN020 TX10/1920Z TN05/1910Z
Forecast period: 0000 to 0100 UTC 19 May 2021
Forecast type: FROM: standard forecast or significant change
Winds: variable direction winds at 6 MPH (5 knots; 2.6 m/s)
Visibility: 6 or more miles (10+ km)
Ceiling: 1200 feet AGL
Clouds: broken clouds at 1200 feet AGL
scattered clouds at 3000 feet AGL
broken clouds at 6000 feet AGL
Weather: SA  (sand)

 AIRPORT MAP

 RUNWAY INFORMATION
Runway 7 Runway length 9219 ft Runway width 164 ft
Runway elevation 189 ft Runway displaced threshold 0 ft Runway heading 79
Runway 25 Runway length 9219 ft Runway width 164 ft
Runway elevation 105 ft Runway displaced threshold 0 ft Runway heading 259

 AIRPORT FREQUENCIES
Type ARR Name COMODORO C Frequency 124.3 MHZ
Type TWR Name COMODORO T Frequency 119.9 MHZ

 AIRPORT NEAR NAVIGATION AIDS
Type NDB Name Comodoro Rivadavia Frequency 280 KHZ
Type VOR-DME Name Comodoro Rivadavia Frequency 117500 KHZ
Type NDB Name Comodoro Rivadavia Frequency 260 KHZ